Time;durP1;ratioP1;P1;durP2;ratioP2;P2;SDS_P1;SDS_P2;PMS_P1;PMS_P2;Temp;Humidity;BMP_temperature;BMP_pressure;BME280_temperature;BME280_humidity;BME280_pressure;Samples;Min_cycle;Max_cycle;Signal;HPM_P1;HPM_P2
2021/09/04 00:02:30;;;;;;;29.42;17.77;;;16.80;99.90;;;;;;7422733;19;20018;-90
2021/09/04 00:05:02;;;;;;;22.77;13.32;;;16.80;99.90;;;;;;7414138;19;20022;-89
2021/09/04 00:07:32;;;;;;;21.92;13.02;;;16.80;99.90;;;;;;7402480;19;20011;-90
2021/09/04 00:10:03;;;;;;;19.88;11.68;;;16.80;99.90;;;;;;7402792;19;20044;-89
2021/09/04 00:12:32;;;;;;;19.52;11.18;;;16.80;99.90;;;;;;7404556;19;20011;-89
2021/09/04 00:15:04;;;;;;;21.67;10.43;;;16.80;99.90;;;;;;7403613;19;20010;-89
2021/09/04 00:17:40;;;;;;;18.70;10.95;;;16.70;99.90;;;;;;7403144;19;20503;-89
2021/09/04 00:20:15;;;;;;;16.98;10.75;;;16.70;99.90;;;;;;7402646;19;20022;-89
2021/09/04 00:22:48;;;;;;;19.52;10.68;;;16.60;99.90;;;;;;7402198;19;20345;-89
2021/09/04 00:25:18;;;;;;;20.33;11.38;;;16.60;99.90;;;;;;7402155;19;20007;-89
2021/09/04 00:27:48;;;;;;;19.75;11.27;;;16.60;99.90;;;;;;7400221;19;20044;-89
2021/09/04 00:30:17;;;;;;;19.75;12.25;;;16.60;99.90;;;;;;7402483;19;20014;-88
2021/09/04 00:32:49;;;;;;;19.45;12.57;;;16.50;99.90;;;;;;7403751;19;20010;-88
2021/09/04 00:35:21;;;;;;;20.35;11.77;;;16.50;99.90;;;;;;7402748;19;20043;-90
2021/09/04 00:37:50;;;;;;;17.42;10.07;;;16.50;99.90;;;;;;7419323;19;20018;-90
2021/09/04 00:40:21;;;;;;;17.30;11.02;;;16.50;99.90;;;;;;7411755;19;20011;-90
2021/09/04 00:42:51;;;;;;;19.52;10.88;;;16.40;99.90;;;;;;7402395;19;20047;-90
2021/09/04 00:45:20;;;;;;;18.75;11.65;;;16.40;99.90;;;;;;7408503;19;20031;-89
2021/09/04 00:48:08;;;;;;;22.75;12.05;;;16.40;99.90;;;;;;7401588;19;20011;-90
2021/09/04 00:50:39;;;;;;;19.70;11.50;;;16.30;99.90;;;;;;7401211;19;20009;-90
2021/09/04 00:53:09;;;;;;;20.83;12.10;;;16.20;99.90;;;;;;7400744;19;20077;-90
2021/09/04 00:55:39;;;;;;;18.17;11.65;;;16.20;99.90;;;;;;7400150;19;20010;-90
2021/09/04 00:58:13;;;;;;;22.52;11.75;;;16.20;99.90;;;;;;7400026;19;20014;-90
2021/09/04 01:00:43;;;;;;;19.40;12.73;;;16.20;99.90;;;;;;7399489;19;20011;-90
2021/09/04 01:03:15;;;;;;;22.08;12.35;;;16.20;99.90;;;;;;7399143;19;20011;-90
2021/09/04 01:05:44;;;;;;;19.67;11.05;;;16.10;99.90;;;;;;7399360;19;20010;-90
2021/09/04 01:08:15;;;;;;;17.00;10.95;;;16.10;99.90;;;;;;7395892;19;20018;-90
2021/09/04 01:10:45;;;;;;;21.92;12.60;;;16.00;99.90;;;;;;7399662;19;20010;-90
2021/09/04 01:13:17;;;;;;;20.55;11.70;;;16.00;99.90;;;;;;7401212;19;20071;-90
2021/09/04 01:15:47;;;;;;;22.05;11.77;;;16.00;99.90;;;;;;7398834;19;20356;-90
2021/09/04 01:18:22;;;;;;;17.65;11.27;;;16.00;99.90;;;;;;7399008;19;20010;-90
2021/09/04 01:20:53;;;;;;;20.08;11.75;;;15.90;99.90;;;;;;7398310;19;20014;-89
2021/09/04 01:23:24;;;;;;;19.05;11.48;;;15.90;99.90;;;;;;7399095;19;20022;-90
2021/09/04 01:25:56;;;;;;;22.95;12.60;;;15.90;99.90;;;;;;7399406;19;20018;-90
2021/09/04 01:28:30;;;;;;;25.70;12.05;;;15.90;99.90;;;;;;7400422;19;20014;-90
2021/09/04 01:31:03;;;;;;;19.70;12.15;;;15.80;99.90;;;;;;7399855;19;20015;-90
2021/09/04 01:33:34;;;;;;;23.90;13.02;;;15.80;99.90;;;;;;7398927;19;20010;-90
2021/09/04 01:36:06;;;;;;;21.80;12.60;;;15.80;99.90;;;;;;7398383;19;20399;-90
2021/09/04 01:38:39;;;;;;;24.48;11.88;;;15.80;99.90;;;;;;7400982;19;20010;-90
2021/09/04 01:41:09;;;;;;;23.52;12.75;;;15.70;99.90;;;;;;7406135;19;20014;-90
2021/09/04 01:43:41;;;;;;;22.52;13.00;;;15.70;99.90;;;;;;7266527;19;2778895;-89
2021/09/04 01:46:12;;;;;;;21.88;12.73;;;15.70;99.90;;;;;;7400304;19;20014;-90
2021/09/04 01:48:45;;;;;;;24.80;13.02;;;15.70;99.90;;;;;;7401806;19;20014;-90
2021/09/04 01:51:14;;;;;;;22.40;12.75;;;15.60;99.90;;;;;;7398776;19;20029;-90
2021/09/04 01:53:47;;;;;;;20.33;12.05;;;15.60;99.90;;;;;;7401729;19;20015;-90
2021/09/04 01:56:16;;;;;;;23.23;12.25;;;15.60;99.90;;;;;;7407223;19;20014;-91
2021/09/04 01:58:48;;;;;;;25.45;12.95;;;15.60;99.90;;;;;;7400116;19;20010;-90
2021/09/04 02:01:20;;;;;;;21.60;12.35;;;15.50;99.90;;;;;;7400264;19;20021;-90
2021/09/04 02:03:50;;;;;;;26.25;12.93;;;15.50;99.90;;;;;;7401496;19;20017;-90
2021/09/04 02:06:19;;;;;;;23.50;13.35;;;15.50;99.90;;;;;;7399927;19;20010;-90
2021/09/04 02:08:48;;;;;;;20.63;12.38;;;15.50;99.90;;;;;;7400157;19;20018;-91
2021/09/04 02:11:18;;;;;;;21.17;12.65;;;15.40;99.90;;;;;;7407715;19;20011;-90
2021/09/04 02:13:51;;;;;;;26.13;13.30;;;15.40;99.90;;;;;;7401793;19;20011;-91
2021/09/04 02:16:20;;;;;;;30.60;13.98;;;15.40;99.90;;;;;;7399327;19;20425;-91
2021/09/04 02:18:50;;;;;;;26.00;13.77;;;15.40;99.90;;;;;;7399674;19;20011;-91
2021/09/04 02:21:20;;;;;;;27.33;13.60;;;15.30;99.90;;;;;;7398815;19;20011;-91
2021/09/04 02:23:53;;;;;;;26.75;13.25;;;15.30;99.90;;;;;;7398772;19;20014;-91
2021/09/04 02:26:23;;;;;;;25.60;13.45;;;15.30;99.90;;;;;;7398930;19;20042;-91
2021/09/04 02:28:55;;;;;;;25.60;13.90;;;15.20;99.90;;;;;;7399316;19;20019;-91
2021/09/04 02:31:28;;;;;;;21.70;13.23;;;15.20;99.90;;;;;;7408875;19;20002;-92
2021/09/04 02:33:59;;;;;;;25.70;13.20;;;15.20;99.90;;;;;;7415488;19;20006;-91
2021/09/04 02:36:28;;;;;;;24.33;13.98;;;15.20;99.90;;;;;;7413531;19;20019;-92
2021/09/04 02:38:58;;;;;;;25.38;14.00;;;15.10;99.90;;;;;;7414320;19;20017;-92
2021/09/04 02:41:27;;;;;;;27.40;13.43;;;15.10;99.90;;;;;;7412493;19;20050;-92
2021/09/04 02:43:59;;;;;;;22.92;14.07;;;15.00;99.90;;;;;;7415689;19;20018;-90
2021/09/04 02:46:32;;;;;;;25.02;13.70;;;15.10;99.90;;;;;;7418592;19;20019;-91
2021/09/04 02:49:05;;;;;;;25.00;14.00;;;15.00;99.90;;;;;;7415256;19;20019;-90
2021/09/04 02:51:37;;;;;;;22.67;13.55;;;14.90;99.90;;;;;;7409287;19;20015;-91
2021/09/04 02:54:08;;;;;;;22.00;13.65;;;14.90;99.90;;;;;;7417507;19;19999;-90
2021/09/04 02:56:37;;;;;;;23.42;14.27;;;14.90;99.90;;;;;;7416422;19;20036;-91
2021/09/04 02:59:12;;;;;;;22.38;14.18;;;14.90;99.90;;;;;;7414936;19;20015;-91
2021/09/04 03:01:44;;;;;;;27.45;15.15;;;14.90;99.90;;;;;;7418142;19;20014;-89
2021/09/04 03:04:17;;;;;;;29.80;17.08;;;14.90;99.90;;;;;;7423554;19;19995;-91
2021/09/04 03:06:50;;;;;;;25.92;15.40;;;14.80;99.90;;;;;;7414414;19;20417;-90
2021/09/04 03:09:20;;;;;;;24.98;14.48;;;14.80;99.90;;;;;;7420762;19;20092;-91
2021/09/04 03:11:53;;;;;;;26.35;14.75;;;14.70;99.90;;;;;;7423115;19;20077;-90
2021/09/04 03:14:26;;;;;;;24.67;14.73;;;14.70;99.90;;;;;;7422049;19;20010;-90
2021/09/04 03:16:58;;;;;;;31.83;16.73;;;14.70;99.90;;;;;;7417120;19;20369;-89
2021/09/04 03:19:31;;;;;;;27.77;15.02;;;14.70;99.90;;;;;;7419358;19;20038;-91
2021/09/04 03:22:02;;;;;;;30.08;14.65;;;14.70;99.90;;;;;;7420440;19;20006;-91
2021/09/04 03:24:31;;;;;;;27.80;15.40;;;14.60;99.90;;;;;;7418716;19;20014;-91
2021/09/04 03:27:06;;;;;;;27.67;16.20;;;14.60;99.90;;;;;;7420077;19;20314;-91
2021/09/04 03:29:38;;;;;;;26.95;14.88;;;14.60;99.90;;;;;;7415497;19;20451;-90
2021/09/04 03:32:08;;;;;;;27.58;15.82;;;14.60;99.90;;;;;;7409014;19;20040;-91
2021/09/04 03:34:40;;;;;;;27.42;15.70;;;14.50;99.90;;;;;;7409323;19;20015;-91
2021/09/04 03:37:10;;;;;;;26.10;14.85;;;14.50;99.90;;;;;;7421897;19;20014;-90
2021/09/04 03:39:40;;;;;;;26.23;16.05;;;14.50;99.90;;;;;;7430595;19;20022;-91
2021/09/04 03:42:10;;;;;;;27.55;15.25;;;14.40;99.90;;;;;;7420292;19;20033;-90
2021/09/04 03:44:43;;;;;;;25.80;15.20;;;14.40;99.90;;;;;;7412399;19;20015;-91
2021/09/04 03:47:15;;;;;;;29.48;16.27;;;14.40;99.90;;;;;;7411380;19;20091;-90
2021/09/04 03:49:46;;;;;;;27.48;16.27;;;14.30;99.90;;;;;;7424314;19;20007;-91
2021/09/04 03:52:19;;;;;;;31.50;16.88;;;14.30;99.90;;;;;;7424102;19;20030;-91
2021/09/04 03:54:50;;;;;;;32.70;17.48;;;14.30;99.90;;;;;;7424961;19;20034;-91
2021/09/04 03:57:20;;;;;;;30.42;16.42;;;14.30;99.90;;;;;;7420524;19;20011;-92
2021/09/04 03:59:52;;;;;;;28.23;16.08;;;14.30;99.90;;;;;;7425816;19;20046;-92
2021/09/04 04:02:21;;;;;;;30.98;16.35;;;14.30;99.90;;;;;;7424358;19;20007;-92
2021/09/04 04:04:51;;;;;;;35.83;17.27;;;14.40;99.90;;;;;;7425996;19;20010;-91
2021/09/04 04:07:23;;;;;;;29.20;17.00;;;14.30;99.90;;;;;;7409865;19;20010;-93
2021/09/04 04:09:57;;;;;;;32.05;17.23;;;14.20;99.90;;;;;;7405145;19;20010;-93
2021/09/04 04:12:29;;;;;;;31.38;17.13;;;14.30;99.90;;;;;;7404117;19;20040;-93
2021/09/04 04:15:01;;;;;;;29.80;17.23;;;14.30;99.90;;;;;;7405662;19;20313;-93
2021/09/04 04:17:32;;;;;;;31.13;16.92;;;14.30;99.90;;;;;;7404753;19;20087;-93
2021/09/04 04:20:03;;;;;;;33.90;16.88;;;14.30;99.90;;;;;;7403761;19;20011;-93
2021/09/04 04:22:35;;;;;;;32.20;16.20;;;14.20;99.90;;;;;;7405161;19;20040;-93
2021/09/04 04:25:05;;;;;;;34.22;16.83;;;14.20;99.90;;;;;;7402631;19;20018;-93
2021/09/04 04:27:38;;;;;;;35.13;17.13;;;14.20;99.90;;;;;;7403326;19;20006;-93
2021/09/04 04:30:14;;;;;;;33.47;17.60;;;14.20;99.90;;;;;;7406291;19;20010;-93
2021/09/04 04:32:47;;;;;;;26.83;15.75;;;14.10;99.90;;;;;;7405443;19;20022;-93
2021/09/04 04:35:20;;;;;;;28.67;17.17;;;14.10;99.90;;;;;;7403319;19;20044;-93
2021/09/04 04:37:52;;;;;;;32.63;17.42;;;14.10;99.90;;;;;;7402876;19;20302;-93
2021/09/04 04:40:24;;;;;;;34.42;17.23;;;14.20;99.90;;;;;;7403749;19;20017;-93
2021/09/04 04:42:55;;;;;;;35.25;18.00;;;14.30;99.90;;;;;;7402029;19;20444;-92
2021/09/04 04:45:28;;;;;;;33.67;16.98;;;14.40;99.90;;;;;;7408435;19;20439;-91
2021/09/04 04:47:59;;;;;;;34.60;17.48;;;14.60;99.90;;;;;;7403491;19;20078;-92
2021/09/04 04:50:29;;;;;;;32.33;17.60;;;14.60;99.90;;;;;;7405018;19;20042;-92
2021/09/04 04:53:01;;;;;;;39.38;17.55;;;14.70;99.90;;;;;;7402840;19;20017;-92
2021/09/04 04:55:31;;;;;;;43.45;19.67;;;14.80;99.90;;;;;;7403243;19;20041;-93
2021/09/04 04:58:01;;;;;;;41.70;20.45;;;14.90;99.90;;;;;;7412162;19;20015;-92
2021/09/04 05:00:35;;;;;;;37.42;19.92;;;15.00;99.90;;;;;;7419717;19;20017;-93
2021/09/04 05:03:04;;;;;;;37.00;19.45;;;14.90;99.90;;;;;;7401263;19;20007;-93
2021/09/04 05:05:36;;;;;;;44.75;20.65;;;14.90;99.90;;;;;;7401556;19;20436;-93
2021/09/04 05:08:07;;;;;;;39.47;20.42;;;14.90;99.90;;;;;;7401588;19;20007;-93
2021/09/04 05:10:38;;;;;;;43.70;21.88;;;15.00;99.90;;;;;;7402116;19;20030;-93
2021/09/04 05:13:08;;;;;;;42.05;20.45;;;15.00;99.90;;;;;;7401089;19;20006;-93
2021/09/04 05:15:43;;;;;;;46.03;21.92;;;15.00;99.90;;;;;;7401052;19;20023;-93
2021/09/04 05:18:16;;;;;;;35.72;20.15;;;15.10;99.90;;;;;;7403613;19;20010;-93
2021/09/04 05:20:46;;;;;;;40.15;20.38;;;15.20;99.90;;;;;;7401269;19;20507;-93
2021/09/04 05:23:16;;;;;;;39.92;19.45;;;15.20;99.90;;;;;;7401033;19;20014;-93
2021/09/04 05:25:50;;;;;;;38.85;20.52;;;15.30;99.90;;;;;;7400894;19;20002;-93
2021/09/04 05:28:21;;;;;;;42.55;20.65;;;15.30;99.90;;;;;;7400994;19;20006;-93
2021/09/04 05:30:53;;;;;;;37.85;19.83;;;15.20;99.90;;;;;;7401047;19;20070;-92
2021/09/04 05:33:22;;;;;;;40.72;20.38;;;15.30;99.90;;;;;;7400472;19;20103;-93
2021/09/04 05:35:54;;;;;;;36.80;19.45;;;15.30;99.90;;;;;;7400480;19;20010;-93
2021/09/04 05:38:26;;;;;;;39.47;19.27;;;15.30;99.90;;;;;;7401022;19;20011;-93
2021/09/04 05:40:55;;;;;;;42.83;18.45;;;15.40;99.90;;;;;;7400469;19;20006;-93
2021/09/04 05:43:27;;;;;;;38.95;19.63;;;15.40;99.90;;;;;;7403743;19;20092;-93
2021/09/04 05:46:00;;;;;;;37.75;18.73;;;15.50;99.90;;;;;;7401341;19;20036;-93
2021/09/04 05:48:33;;;;;;;36.55;17.42;;;15.50;99.90;;;;;;7398907;19;20011;-93
2021/09/04 05:51:03;;;;;;;37.70;18.92;;;15.60;99.90;;;;;;7400788;19;20003;-93
2021/09/04 05:53:33;;;;;;;36.05;19.35;;;15.60;99.90;;;;;;7403871;19;20055;-93
2021/09/04 05:56:04;;;;;;;39.97;20.42;;;15.60;99.90;;;;;;7403310;19;20017;-92
2021/09/04 05:58:36;;;;;;;37.13;18.65;;;15.70;99.90;;;;;;7401477;19;20034;-92
2021/09/04 06:01:09;;;;;;;36.88;18.35;;;15.80;99.90;;;;;;7402822;19;20010;-92
2021/09/04 06:03:43;;;;;;;45.50;19.75;;;15.80;99.90;;;;;;7403803;19;20003;-92
2021/09/04 06:06:13;;;;;;;41.83;19.48;;;15.80;99.90;;;;;;7405042;19;20047;-92
2021/09/04 06:08:43;;;;;;;42.80;21.35;;;15.80;99.90;;;;;;7399085;19;20333;-92
2021/09/04 06:11:16;;;;;;;39.28;19.63;;;15.80;99.90;;;;;;7400872;19;20003;-93
2021/09/04 06:13:45;;;;;;;38.60;19.15;;;15.80;99.90;;;;;;7406934;19;20007;-92
2021/09/04 06:16:19;;;;;;;38.67;19.55;;;15.80;99.90;;;;;;7405335;19;20440;-92
2021/09/04 06:18:50;;;;;;;40.65;20.33;;;15.90;99.90;;;;;;7422091;19;20011;-92
2021/09/04 06:21:23;;;;;;;43.03;19.85;;;15.90;99.90;;;;;;7422249;19;20007;-93
2021/09/04 06:23:53;;;;;;;37.72;19.23;;;16.00;99.90;;;;;;7421659;19;20003;-91
2021/09/04 06:26:22;;;;;;;41.70;19.35;;;15.90;99.90;;;;;;7421186;19;20019;-93
2021/09/04 06:28:55;;;;;;;45.88;19.40;;;16.00;99.90;;;;;;7401079;19;20006;-92
2021/09/04 06:31:28;;;;;;;43.05;19.00;;;16.20;99.90;;;;;;7402865;19;20044;-93
2021/09/04 06:34:00;;;;;;;34.00;17.55;;;16.20;99.90;;;;;;7402258;19;20011;-91
2021/09/04 06:36:31;;;;;;;35.22;18.30;;;16.20;99.90;;;;;;7406457;19;20006;-92
2021/09/04 06:39:00;;;;;;;36.75;18.60;;;16.30;99.90;;;;;;7410639;19;20010;-93
2021/09/04 06:41:31;;;;;;;36.08;19.23;;;16.40;99.90;;;;;;7406432;19;20015;-93
2021/09/04 06:44:04;;;;;;;39.05;19.35;;;16.50;99.90;;;;;;7403919;19;20014;-93
2021/09/04 06:46:36;;;;;;;36.17;19.80;;;16.50;99.90;;;;;;7405463;19;20078;-93
2021/09/04 06:49:10;;;;;;;36.88;17.80;;;16.50;99.90;;;;;;7406862;19;20427;-92
2021/09/04 06:51:41;;;;;;;38.45;18.67;;;16.60;99.90;;;;;;7405712;19;20011;-91
2021/09/04 06:54:19;;;;;;;44.10;19.45;;;16.70;99.90;;;;;;7406818;19;20109;-92
2021/09/04 06:56:48;;;;;;;34.25;17.77;;;16.90;99.90;;;;;;7409782;19;20356;-90
2021/09/04 06:59:19;;;;;;;32.97;17.33;;;16.80;99.90;;;;;;7406805;19;20011;-90
2021/09/04 07:01:52;;;;;;;36.50;18.60;;;16.90;99.90;;;;;;7406749;19;20310;-92
2021/09/04 07:04:21;;;;;;;32.05;16.48;;;17.00;99.90;;;;;;7406633;19;20489;-92
2021/09/04 07:06:51;;;;;;;33.50;17.65;;;17.10;99.90;;;;;;7411503;19;20011;-91
2021/09/04 07:09:20;;;;;;;33.38;16.85;;;17.20;99.90;;;;;;7414062;19;20003;-90
2021/09/04 07:11:50;;;;;;;28.98;16.33;;;17.20;99.90;;;;;;7413574;19;20027;-90
2021/09/04 07:14:19;;;;;;;30.00;15.43;;;17.20;99.90;;;;;;7420705;19;20018;-90
2021/09/04 07:16:51;;;;;;;30.05;15.00;;;17.20;99.90;;;;;;7431519;19;20019;-89
2021/09/04 07:19:24;;;;;;;35.20;15.70;;;17.30;99.90;;;;;;7423274;19;20003;-90
2021/09/04 07:21:54;;;;;;;25.23;14.80;;;17.50;99.90;;;;;;7413039;19;20021;-91
2021/09/04 07:24:23;;;;;;;28.77;14.25;;;17.50;99.90;;;;;;7406064;19;20314;-90
2021/09/04 07:26:56;;;;;;;26.63;14.15;;;17.50;99.90;;;;;;7406412;19;20010;-90
2021/09/04 07:29:26;;;;;;;28.30;14.18;;;17.60;99.90;;;;;;7405474;19;20017;-91
2021/09/04 07:32:00;;;;;;;34.45;14.85;;;17.60;99.90;;;;;;7407673;19;20052;-89
2021/09/04 07:34:32;;;;;;;32.53;14.15;;;17.50;99.90;;;;;;7406451;19;20333;-90
2021/09/04 07:37:06;;;;;;;30.90;14.68;;;17.50;99.90;;;;;;7405550;19;20046;-90
2021/09/04 07:39:37;;;;;;;24.48;13.95;;;17.50;99.90;;;;;;7405529;19;20047;-91
2021/09/04 07:42:06;;;;;;;25.55;13.45;;;17.60;99.90;;;;;;7404785;19;20480;-89
2021/09/04 07:44:40;;;;;;;26.80;14.32;;;17.60;99.90;;;;;;7405294;19;20007;-91
2021/09/04 07:47:12;;;;;;;28.92;14.00;;;17.80;99.90;;;;;;7403941;19;20007;-90
2021/09/04 07:49:42;;;;;;;22.77;12.68;;;17.80;99.90;;;;;;7401220;19;20010;-89
2021/09/04 07:52:23;;;;;;;29.15;14.32;;;17.80;99.90;;;;;;7405864;19;20025;-90
2021/09/04 07:54:58;;;;;;;24.80;12.98;;;17.80;99.90;;;;;;7405151;19;20051;-91
2021/09/04 07:57:28;;;;;;;20.58;12.25;;;17.70;99.90;;;;;;7407684;19;20021;-91
2021/09/04 07:59:59;;;;;;;21.35;12.55;;;17.70;99.90;;;;;;7411656;19;20031;-91
2021/09/04 08:02:32;;;;;;;19.60;11.30;;;17.70;99.90;;;;;;7416302;19;20038;-90
2021/09/04 08:05:03;;;;;;;21.65;11.38;;;17.70;99.90;;;;;;7408018;19;20016;-91
2021/09/04 08:07:39;;;;;;;18.40;10.07;;;17.80;99.90;;;;;;7405712;19;20014;-89
2021/09/04 08:10:13;;;;;;;19.60;11.50;;;17.90;99.90;;;;;;7402363;19;20013;-90
2021/09/04 08:12:42;;;;;;;18.27;11.10;;;18.00;99.90;;;;;;7403815;19;20018;-90
2021/09/04 08:15:14;;;;;;;22.50;12.13;;;18.00;99.90;;;;;;7405491;19;20031;-90
2021/09/04 08:17:51;;;;;;;21.25;11.57;;;18.00;99.90;;;;;;7404848;19;20011;-90
2021/09/04 08:20:21;;;;;;;22.90;11.50;;;18.10;99.90;;;;;;7403781;19;20078;-90
2021/09/04 08:23:00;;;;;;;23.05;12.45;;;18.20;99.90;;;;;;7404713;19;20022;-91
2021/09/04 08:25:33;;;;;;;21.58;12.85;;;18.20;99.90;;;;;;7411903;19;20011;-91
2021/09/04 08:28:08;;;;;;;20.20;12.05;;;18.10;99.90;;;;;;7416753;19;20043;-90
2021/09/04 08:30:39;;;;;;;26.75;13.45;;;18.10;99.90;;;;;;7420577;19;20012;-90
2021/09/04 08:33:12;;;;;;;22.65;13.15;;;18.10;99.90;;;;;;7424656;19;20014;-90
2021/09/04 08:35:44;;;;;;;23.90;13.75;;;18.20;99.90;;;;;;7424481;19;20014;-90
2021/09/04 08:38:22;;;;;;;20.00;12.65;;;18.30;99.90;;;;;;7422497;19;20014;-90
2021/09/04 08:40:56;;;;;;;22.88;12.90;;;18.30;99.90;;;;;;7418734;19;20006;-90
2021/09/04 08:43:28;;;;;;;25.08;13.82;;;18.30;99.90;;;;;;7413047;19;20086;-90
2021/09/04 08:45:59;;;;;;;28.95;14.52;;;18.40;99.90;;;;;;7407894;19;20010;-90
2021/09/04 08:48:33;;;;;;;20.88;11.95;;;18.30;99.90;;;;;;7406673;19;20055;-91
2021/09/04 08:51:14;;;;;;;23.85;13.10;;;18.30;99.90;;;;;;7408119;19;20444;-90
2021/09/04 08:53:48;;;;;;;27.35;13.88;;;18.20;99.90;;;;;;7405479;19;20030;-90
2021/09/04 08:56:18;;;;;;;24.88;14.70;;;18.20;99.90;;;;;;7405208;19;20029;-90
2021/09/04 08:58:47;;;;;;;23.65;13.30;;;18.10;99.90;;;;;;7404415;19;20098;-91
2021/09/04 09:01:19;;;;;;;29.77;14.73;;;18.00;99.90;;;;;;7406662;19;20011;-90
2021/09/04 09:03:52;;;;;;;21.20;12.55;;;18.00;99.90;;;;;;7408069;19;20010;-90
2021/09/04 09:06:29;;;;;;;24.98;14.13;;;18.00;99.90;;;;;;7411987;19;19998;-90
2021/09/04 09:09:02;;;;;;;25.42;13.15;;;18.00;99.90;;;;;;7416423;19;20011;-90
2021/09/04 09:11:39;;;;;;;24.65;13.45;;;18.10;99.90;;;;;;7412188;19;20027;-91
2021/09/04 09:14:08;;;;;;;22.75;13.25;;;18.10;99.90;;;;;;7413204;19;20010;-90
2021/09/04 09:16:49;;;;;;;21.77;12.77;;;18.20;99.90;;;;;;7413130;19;20018;-90
2021/09/04 09:19:24;;;;;;;23.40;12.13;;;18.30;99.90;;;;;;7414736;19;20030;-90
2021/09/04 09:21:56;;;;;;;24.60;12.75;;;18.40;99.90;;;;;;7410299;19;20010;-90
2021/09/04 09:24:27;;;;;;;23.02;12.77;;;18.50;99.90;;;;;;7412656;19;20043;-90
2021/09/04 09:27:04;;;;;;;20.73;11.57;;;18.70;99.90;;;;;;7409344;19;20027;-89
2021/09/04 09:29:38;;;;;;;24.77;14.18;;;18.70;99.90;;;;;;7422856;19;20051;-88
2021/09/04 09:32:12;;;;;;;25.00;13.55;;;18.80;99.90;;;;;;7411637;19;20006;-88
2021/09/04 09:34:50;;;;;;;25.00;13.68;;;18.80;99.90;;;;;;7426606;19;20035;-89
2021/09/04 09:37:23;;;;;;;28.98;15.15;;;18.80;99.90;;;;;;7427236;19;20002;-89
2021/09/04 09:39:52;;;;;;;30.80;15.02;;;18.80;99.90;;;;;;7428016;19;20049;-89
2021/09/04 09:42:23;;;;;;;31.27;15.18;;;18.70;99.90;;;;;;7426675;19;20015;-89
2021/09/04 09:44:52;;;;;;;29.85;15.93;;;18.70;99.90;;;;;;7421583;19;20010;-88
2021/09/04 09:47:26;;;;;;;31.13;15.25;;;18.80;99.90;;;;;;7427496;19;20006;-88
2021/09/04 09:49:58;;;;;;;29.15;15.88;;;18.90;99.90;;;;;;7426139;19;20051;-88
2021/09/04 09:55:30;;;;;;;32.65;15.80;;;18.90;99.90;;;;;;7427351;19;20002;-88
2021/09/04 09:58:00;;;;;;;29.90;16.17;;;18.90;99.90;;;;;;7423472;19;20021;-88
2021/09/04 10:00:33;;;;;;;30.50;16.13;;;18.80;99.90;;;;;;7410714;19;20007;-87
2021/09/04 10:03:06;;;;;;;30.48;16.27;;;18.90;99.90;;;;;;7428513;19;20014;-88
2021/09/04 10:05:39;;;;;;;30.73;15.32;;;18.90;99.90;;;;;;7429633;19;19998;-89
2021/09/04 10:08:09;;;;;;;33.47;16.67;;;18.90;99.90;;;;;;7427367;19;20026;-88
2021/09/04 10:10:43;;;;;;;30.50;15.27;;;18.90;99.90;;;;;;7423603;19;20026;-89
2021/09/04 10:13:15;;;;;;;33.92;14.77;;;18.90;99.90;;;;;;7427361;19;19998;-89
2021/09/04 10:15:49;;;;;;;25.98;14.65;;;18.80;99.90;;;;;;7414888;19;20009;-90
2021/09/04 10:18:24;;;;;;;32.20;15.68;;;18.70;99.90;;;;;;7425248;19;20019;-90
2021/09/04 10:21:08;;;;;;;28.95;15.80;;;18.70;99.90;;;;;;7427038;19;20047;-89
2021/09/04 10:23:40;;;;;;;27.55;14.50;;;18.80;99.90;;;;;;7427402;19;20006;-89
2021/09/04 10:26:29;;;;;;;32.03;16.40;;;18.80;99.90;;;;;;7427241;19;19999;-87
2021/09/04 10:29:08;;;;;;;30.77;16.02;;;18.80;99.90;;;;;;7426539;19;20085;-87
2021/09/04 10:31:57;;;;;;;32.25;17.95;;;18.80;99.90;;;;;;7424529;19;20043;-90
2021/09/04 10:34:29;;;;;;;28.08;15.00;;;18.80;99.90;;;;;;7425746;19;19999;-88
2021/09/04 10:37:05;;;;;;;31.40;16.67;;;18.80;99.90;;;;;;7417292;19;20038;-92
2021/09/04 10:39:51;;;;;;;36.80;16.60;;;18.70;99.90;;;;;;7408727;19;20018;-90
2021/09/04 10:42:23;;;;;;;28.38;15.52;;;18.70;99.90;;;;;;7410489;19;20021;-90
2021/09/04 10:44:56;;;;;;;32.80;16.73;;;18.70;99.90;;;;;;7407289;19;20006;-90
2021/09/04 10:47:25;;;;;;;30.70;15.90;;;18.70;99.90;;;;;;7404318;19;20006;-89
2021/09/04 10:49:57;;;;;;;29.52;15.60;;;18.70;99.90;;;;;;7402925;19;20011;-91
2021/09/04 10:52:57;;;;;;;30.55;13.90;;;18.70;99.90;;;;;;7416405;19;20400;-88
2021/09/04 10:55:30;;;;;;;28.13;15.23;;;18.60;99.90;;;;;;7423987;19;20055;-91
2021/09/04 10:58:07;;;;;;;26.92;13.50;;;18.60;99.90;;;;;;7422538;19;20018;-90
2021/09/04 11:00:42;;;;;;;27.50;14.10;;;18.50;99.90;;;;;;7425308;19;20118;-91
2021/09/04 11:03:13;;;;;;;29.20;13.98;;;18.70;99.90;;;;;;7427209;19;20009;-89
2021/09/04 11:05:48;;;;;;;32.35;16.80;;;18.80;99.90;;;;;;7425683;19;20003;-89
2021/09/04 11:08:39;;;;;;;35.45;16.63;;;19.00;99.90;;;;;;7425300;19;20043;-89
2021/09/04 11:11:27;;;;;;;33.92;16.50;;;19.10;99.90;;;;;;7421328;19;20015;-88
2021/09/04 11:14:00;;;;;;;31.73;16.80;;;19.00;99.90;;;;;;7422567;19;20024;-90
2021/09/04 11:16:36;;;;;;;36.60;17.08;;;19.00;99.90;;;;;;7424444;19;20002;-90
2021/09/04 11:19:13;;;;;;;28.58;14.43;;;19.00;99.90;;;;;;7424154;19;20011;-89
2021/09/04 11:21:54;;;;;;;22.27;12.40;;;19.00;99.90;;;;;;7424971;19;20013;-90
2021/09/04 11:24:30;;;;;;;24.42;12.80;;;18.90;99.90;;;;;;7431125;19;20025;-90
2021/09/04 11:27:06;;;;;;;23.17;11.70;;;18.90;99.90;;;;;;7432591;19;20009;-90
2021/09/04 11:29:41;;;;;;;19.40;11.07;;;18.70;99.90;;;;;;7426528;19;20007;-89
2021/09/04 11:32:14;;;;;;;22.45;12.23;;;18.60;99.90;;;;;;7428887;19;20091;-88
2021/09/04 11:34:50;;;;;;;23.13;12.68;;;18.60;99.90;;;;;;7429182;19;20014;-89
2021/09/04 11:37:32;;;;;;;21.42;11.98;;;18.70;99.90;;;;;;7421125;19;20315;-91
2021/09/04 11:40:09;;;;;;;23.20;12.15;;;18.70;99.90;;;;;;7415964;19;20007;-90
2021/09/04 11:42:41;;;;;;;24.92;12.07;;;18.70;99.90;;;;;;7411219;19;20022;-89
2021/09/04 11:45:15;;;;;;;22.92;11.90;;;18.90;99.90;;;;;;7408673;19;20417;-91
2021/09/04 11:47:46;;;;;;;23.67;12.75;;;19.00;99.90;;;;;;7408191;19;20021;-89
2021/09/04 11:50:25;;;;;;;20.50;12.38;;;19.00;99.90;;;;;;7419296;19;20015;-88
2021/09/04 11:52:55;;;;;;;20.05;12.00;;;19.00;99.90;;;;;;7413388;19;20014;-90
2021/09/04 11:55:29;;;;;;;22.77;12.13;;;19.10;99.90;;;;;;7411646;19;20030;-89
2021/09/04 11:58:00;;;;;;;20.08;12.70;;;19.20;99.90;;;;;;7409200;19;20011;-90
2021/09/04 12:00:32;;;;;;;22.70;12.20;;;19.10;99.90;;;;;;7406203;19;20011;-90
2021/09/04 12:03:03;;;;;;;20.17;12.50;;;19.10;99.90;;;;;;7411793;19;20073;-91
2021/09/04 12:05:35;;;;;;;23.92;12.75;;;19.10;99.90;;;;;;7408751;19;20020;-89
2021/09/04 12:08:07;;;;;;;21.67;12.32;;;19.20;99.90;;;;;;7411119;19;20015;-89
2021/09/04 12:11:06;;;;;;;22.55;12.30;;;19.20;99.90;;;;;;7420155;19;20031;-90
2021/09/04 12:13:39;;;;;;;22.85;12.45;;;19.30;99.90;;;;;;7420613;19;20007;-91
2021/09/04 12:16:14;;;;;;;20.58;11.88;;;19.40;99.90;;;;;;7419013;19;20024;-91
2021/09/04 12:18:46;;;;;;;21.20;11.90;;;19.50;99.90;;;;;;7412145;19;20036;-90
2021/09/04 12:21:26;;;;;;;22.80;11.50;;;19.60;99.90;;;;;;7419999;19;20325;-90
2021/09/04 12:23:57;;;;;;;23.95;11.82;;;19.60;99.90;;;;;;7416118;19;20014;-90
2021/09/04 12:26:27;;;;;;;20.85;13.35;;;19.70;99.90;;;;;;7411376;19;20003;-90
2021/09/04 12:29:10;;;;;;;20.92;12.52;;;19.70;99.90;;;;;;7408709;19;20052;-91
2021/09/04 12:31:45;;;;;;;19.33;11.35;;;20.00;99.90;;;;;;7408448;19;20117;-91
2021/09/04 12:34:21;;;;;;;20.70;11.55;;;20.20;99.90;;;;;;7406623;19;20014;-90
2021/09/04 12:36:52;;;;;;;20.63;10.85;;;20.40;99.80;;;;;;7409373;19;20030;-89
2021/09/04 12:39:27;;;;;;;23.75;12.00;;;20.60;99.70;;;;;;7409746;19;20396;-89
2021/09/04 12:42:05;;;;;;;22.88;12.57;;;20.70;99.10;;;;;;7410001;19;20010;-91
2021/09/04 12:44:43;;;;;;;19.17;10.97;;;20.90;98.40;;;;;;7406272;19;20018;-90
2021/09/04 12:47:13;;;;;;;17.90;11.20;;;20.80;98.20;;;;;;7406969;19;20077;-90
2021/09/04 12:49:55;;;;;;;17.63;10.80;;;20.90;98.00;;;;;;7406866;19;20417;-90
2021/09/04 12:52:28;;;;;;;20.38;11.52;;;21.00;97.80;;;;;;7406185;19;20100;-89
2021/09/04 12:54:59;;;;;;;21.73;11.10;;;21.00;96.90;;;;;;7405433;19;20087;-88
2021/09/04 12:57:31;;;;;;;20.50;12.38;;;21.10;97.20;;;;;;7409904;19;20026;-87